createdAt,value
2023-01-12T00:00:56.251Z,1019.4
2023-01-12T00:01:56.277Z,1019.46
2023-01-12T00:02:56.259Z,1019.38
2023-01-12T00:03:56.269Z,1019.42
2023-01-12T00:04:56.250Z,1019.41
2023-01-12T00:05:56.247Z,1019.34
2023-01-12T00:06:56.258Z,1019.33
2023-01-12T00:07:56.269Z,1019.33
2023-01-12T00:08:56.246Z,1019.29
2023-01-12T00:09:56.269Z,1019.18
2023-01-12T00:10:56.259Z,1019.23
2023-01-12T00:11:56.249Z,1019.25
2023-01-12T00:12:56.264Z,1019.28
2023-01-12T00:13:56.249Z,1019.3
2023-01-12T00:14:56.252Z,1019.3
2023-01-12T00:15:56.326Z,1019.29
2023-01-12T00:16:56.244Z,1019.31
2023-01-12T00:17:56.258Z,1019.34
2023-01-12T00:18:56.250Z,1019.29
2023-01-12T00:19:56.262Z,1019.22
2023-01-12T00:20:56.255Z,1019.29
2023-01-12T00:21:56.300Z,1019.21
2023-01-12T00:22:56.262Z,1019.24
2023-01-12T00:23:56.253Z,1019.24
2023-01-12T00:24:56.259Z,1019.22
2023-01-12T00:25:56.244Z,1019.26
2023-01-12T00:26:56.255Z,1019.36
2023-01-12T00:27:56.271Z,1019.36
2023-01-12T00:28:56.256Z,1019.32
2023-01-12T00:29:56.253Z,1019.36
2023-01-12T00:30:56.260Z,1019.36
2023-01-12T00:31:56.256Z,1019.44
2023-01-12T00:32:56.270Z,1019.45
2023-01-12T00:33:56.245Z,1019.45
2023-01-12T00:34:56.249Z,1019.46
2023-01-12T00:35:56.290Z,1019.49
2023-01-12T00:36:56.271Z,1019.46
2023-01-12T00:37:56.263Z,1019.45
2023-01-12T00:38:56.270Z,1019.44
2023-01-12T00:40:02.515Z,1019.48
2023-01-12T00:40:56.250Z,1019.49
2023-01-12T00:41:56.340Z,1019.49
2023-01-12T00:42:56.260Z,1019.42
2023-01-12T00:43:56.254Z,1019.4
2023-01-12T00:44:56.247Z,1019.43
2023-01-12T00:45:56.316Z,1019.42
2023-01-12T00:46:56.255Z,1019.43
2023-01-12T00:47:56.366Z,1019.41
2023-01-12T00:48:56.255Z,1019.42
2023-01-12T00:49:56.249Z,1019.42
2023-01-12T00:50:56.247Z,1019.45
2023-01-12T00:51:56.245Z,1019.45
2023-01-12T00:52:56.255Z,1019.45
2023-01-12T00:53:56.253Z,1019.45
2023-01-12T00:54:56.250Z,1019.5
2023-01-12T00:55:56.255Z,1019.48
2023-01-12T00:56:56.249Z,1019.46
2023-01-12T00:57:56.256Z,1019.44
2023-01-12T00:58:56.244Z,1019.41
2023-01-12T00:59:56.255Z,1019.38
2023-01-12T01:00:56.277Z,1019.42
2023-01-12T01:01:56.372Z,1019.49
2023-01-12T01:02:56.287Z,1019.53
2023-01-12T01:03:56.252Z,1019.53
2023-01-12T01:04:56.356Z,1019.43
2023-01-12T01:05:56.241Z,1019.5
2023-01-12T01:06:56.241Z,1019.5
2023-01-12T01:07:56.264Z,1019.56
2023-01-12T01:08:56.245Z,1019.56
2023-01-12T01:09:56.245Z,1019.51
2023-01-12T01:10:56.250Z,1019.47
2023-01-12T01:11:56.243Z,1019.49
2023-01-12T01:12:56.264Z,1019.5
2023-01-12T01:13:56.242Z,1019.48
2023-01-12T01:14:56.253Z,1019.52
2023-01-12T01:15:56.286Z,1019.43
2023-01-12T01:16:56.248Z,1019.4
2023-01-12T01:17:56.260Z,1019.4
2023-01-12T01:18:56.339Z,1019.44
2023-01-12T01:19:56.253Z,1019.48
2023-01-12T01:20:56.260Z,1019.47
2023-01-12T01:21:56.253Z,1019.47
2023-01-12T01:22:56.268Z,1019.44
2023-01-12T01:23:56.247Z,1019.41
2023-01-12T01:24:56.368Z,1019.4
2023-01-12T01:25:56.256Z,1019.36
2023-01-12T01:26:56.266Z,1019.31
2023-01-12T01:27:56.314Z,1019.35
2023-01-12T01:28:56.250Z,1019.33
2023-01-12T01:29:56.264Z,1019.4
2023-01-12T01:30:56.289Z,1019.4
2023-01-12T01:31:56.265Z,1019.43
2023-01-12T01:32:56.262Z,1019.54
2023-01-12T01:33:56.257Z,1019.55
2023-01-12T01:34:56.259Z,1019.54
2023-01-12T01:35:56.246Z,1019.54
2023-01-12T01:36:56.263Z,1019.54
2023-01-12T01:37:56.272Z,1019.47
2023-01-12T01:38:56.257Z,1019.51
2023-01-12T01:39:56.271Z,1019.5
2023-01-12T01:40:56.257Z,1019.53
2023-01-12T01:41:56.266Z,1019.56
2023-01-12T01:42:56.270Z,1019.55
2023-01-12T01:43:56.253Z,1019.51
2023-01-12T01:44:56.246Z,1019.53
2023-01-12T01:45:56.251Z,1019.52
2023-01-12T01:46:56.257Z,1019.51
2023-01-12T01:47:56.264Z,1019.51
2023-01-12T01:48:56.247Z,1019.56
2023-01-12T01:49:56.249Z,1019.51
2023-01-12T01:50:56.241Z,1019.51
2023-01-12T01:51:56.254Z,1019.5
2023-01-12T01:52:56.281Z,1019.47
2023-01-12T01:53:56.255Z,1019.44
2023-01-12T01:54:56.256Z,1019.47
2023-01-12T01:55:56.258Z,1019.46
2023-01-12T01:56:56.274Z,1019.46
2023-01-12T01:57:56.268Z,1019.52
2023-01-12T01:58:56.258Z,1019.45
2023-01-12T01:59:56.257Z,1019.45
2023-01-12T02:00:56.288Z,1019.46
2023-01-12T02:01:56.375Z,1019.46
2023-01-12T02:02:56.363Z,1019.5
2023-01-12T02:03:56.255Z,1019.52
2023-01-12T02:04:56.245Z,1019.47
2023-01-12T02:05:56.236Z,1019.48
2023-01-12T02:06:56.244Z,1019.45
2023-01-12T02:07:56.437Z,1019.46
2023-01-12T02:08:56.240Z,1019.46
2023-01-12T02:09:56.239Z,1019.46
2023-01-12T02:10:56.237Z,1019.42
2023-01-12T02:11:56.238Z,1019.39
2023-01-12T02:12:56.266Z,1019.39
2023-01-12T02:13:56.252Z,1019.42
2023-01-12T02:14:56.247Z,1019.4
2023-01-12T02:15:56.326Z,1019.41
2023-01-12T02:16:56.249Z,1019.43
2023-01-12T02:17:56.252Z,1019.4
2023-01-12T02:18:56.240Z,1019.41
2023-01-12T02:19:56.298Z,1019.44
2023-01-12T02:20:56.254Z,1019.4
2023-01-12T02:21:56.243Z,1019.32
2023-01-12T02:22:56.254Z,1019.36
2023-01-12T02:23:56.241Z,1019.34
2023-01-12T02:24:56.257Z,1019.39
2023-01-12T02:25:56.332Z,1019.4
2023-01-12T02:26:56.238Z,1019.4
2023-01-12T02:27:56.262Z,1019.4
2023-01-12T02:28:56.251Z,1019.38
2023-01-12T02:29:56.261Z,1019.4
2023-01-12T02:30:56.279Z,1019.4
2023-01-12T02:31:56.244Z,1019.47
2023-01-12T02:32:56.263Z,1019.45
2023-01-12T02:33:56.249Z,1019.47
2023-01-12T02:34:56.244Z,1019.47
2023-01-12T02:35:56.249Z,1019.48
2023-01-12T02:36:56.240Z,1019.54
2023-01-12T02:37:56.260Z,1019.53
2023-01-12T02:38:56.251Z,1019.51
2023-01-12T02:39:56.248Z,1019.51
2023-01-12T02:40:56.253Z,1019.54
2023-01-12T02:41:56.250Z,1019.53
2023-01-12T02:42:56.268Z,1019.5
2023-01-12T02:43:56.242Z,1019.52
2023-01-12T02:44:56.296Z,1019.45
2023-01-12T02:45:56.252Z,1019.45
2023-01-12T02:46:56.247Z,1019.42
2023-01-12T02:47:56.285Z,1019.43
2023-01-12T02:48:56.247Z,1019.49
2023-01-12T02:49:56.250Z,1019.46
2023-01-12T02:50:56.245Z,1019.47
2023-01-12T02:51:56.257Z,1019.5
2023-01-12T02:52:56.264Z,1019.51
2023-01-12T02:53:56.236Z,1019.51
2023-01-12T02:54:56.259Z,1019.56
2023-01-12T02:55:56.243Z,1019.64
2023-01-12T02:56:56.255Z,1019.59
2023-01-12T02:57:56.264Z,1019.62
2023-01-12T02:58:56.241Z,1019.65
2023-01-12T02:59:56.252Z,1019.65
2023-01-12T03:00:56.336Z,1019.65
2023-01-12T03:01:56.242Z,1019.7
2023-01-12T03:02:56.318Z,1019.67
2023-01-12T03:03:56.337Z,1019.69
2023-01-12T03:04:56.249Z,1019.69
2023-01-12T03:05:56.234Z,1019.69
2023-01-12T03:06:56.251Z,1019.67
2023-01-12T03:07:56.267Z,1019.64
2023-01-12T03:08:56.241Z,1019.64
2023-01-12T03:09:56.243Z,1019.54
2023-01-12T03:10:56.251Z,1019.51
2023-01-12T03:11:56.237Z,1019.52
2023-01-12T03:12:56.261Z,1019.46
2023-01-12T03:13:56.244Z,1019.47
2023-01-12T03:14:56.239Z,1019.47
2023-01-12T03:15:56.249Z,1019.45
2023-01-12T03:16:56.240Z,1019.46
2023-01-12T03:17:56.274Z,1019.45
2023-01-12T03:18:56.250Z,1019.46
2023-01-12T03:19:56.249Z,1019.45
2023-01-12T03:20:56.240Z,1019.44
2023-01-12T03:21:56.241Z,1019.44
2023-01-12T03:22:56.253Z,1019.48
2023-01-12T03:23:56.238Z,1019.53
2023-01-12T03:24:56.242Z,1019.56
2023-01-12T03:25:56.249Z,1019.52
2023-01-12T03:26:56.244Z,1019.52
2023-01-12T03:27:56.386Z,1019.52
2023-01-12T03:28:56.235Z,1019.53
2023-01-12T03:29:56.251Z,1019.51
2023-01-12T03:30:56.249Z,1019.51
2023-01-12T03:31:56.259Z,1019.53
2023-01-12T03:32:56.260Z,1019.56
2023-01-12T03:33:56.242Z,1019.46
2023-01-12T03:34:56.250Z,1019.43
2023-01-12T03:35:56.246Z,1019.42
2023-01-12T03:36:56.256Z,1019.34
2023-01-12T03:37:56.262Z,1019.34
2023-01-12T03:38:56.247Z,1019.38
2023-01-12T03:39:56.242Z,1019.39
2023-01-12T03:40:56.245Z,1019.35
2023-01-12T03:41:56.269Z,1019.35
2023-01-12T03:42:56.262Z,1019.31
2023-01-12T03:43:56.248Z,1019.38
2023-01-12T03:44:56.249Z,1019.29
2023-01-12T03:45:56.249Z,1019.31
2023-01-12T03:46:56.273Z,1019.31
2023-01-12T03:47:56.257Z,1019.34
2023-01-12T03:48:56.241Z,1019.43
2023-01-12T03:49:56.246Z,1019.41
2023-01-12T03:50:56.354Z,1019.32
2023-01-12T03:51:56.258Z,1019.39
2023-01-12T03:52:56.257Z,1019.34
2023-01-12T03:53:56.245Z,1019.39
2023-01-12T03:54:56.239Z,1019.38
2023-01-12T03:55:56.247Z,1019.36
2023-01-12T03:56:56.255Z,1019.31
2023-01-12T03:57:56.266Z,1019.29
2023-01-12T03:58:56.253Z,1019.29
2023-01-12T03:59:56.268Z,1019.28
2023-01-12T04:00:56.331Z,1019.28
2023-01-12T04:01:56.433Z,1019.26
2023-01-12T04:02:56.296Z,1019.38
2023-01-12T04:03:56.240Z,1019.4
2023-01-12T04:04:56.248Z,1019.29
2023-01-12T04:05:56.265Z,1019.29
2023-01-12T04:06:56.250Z,1019.27
2023-01-12T04:07:56.253Z,1019.27
2023-01-12T04:08:56.268Z,1019.3
2023-01-12T04:09:56.248Z,1019.29
2023-01-12T04:10:56.239Z,1019.3
2023-01-12T04:11:56.263Z,1019.23
2023-01-12T04:12:56.268Z,1019.23
2023-01-12T04:13:56.235Z,1019.26
2023-01-12T04:14:56.248Z,1019.31
2023-01-12T04:15:56.259Z,1019.29
2023-01-12T04:16:56.255Z,1019.32
2023-01-12T04:17:56.319Z,1019.24
2023-01-12T04:18:56.241Z,1019.18
2023-01-12T04:19:56.271Z,1019.24
2023-01-12T04:20:56.241Z,1019.1
2023-01-12T04:21:56.242Z,1019.2
2023-01-12T04:22:56.256Z,1019.21
2023-01-12T04:23:56.237Z,1019.12
2023-01-12T04:24:56.242Z,1019.04
2023-01-12T04:25:56.268Z,1019.1
2023-01-12T04:26:56.249Z,1019.12
2023-01-12T04:27:56.292Z,1019.06
2023-01-12T04:28:56.240Z,1019.12
2023-01-12T04:29:56.250Z,1019.17
2023-01-12T04:30:56.235Z,1019.2
2023-01-12T04:31:56.284Z,1019.16
2023-01-12T04:32:56.253Z,1019.17
2023-01-12T04:33:56.252Z,1019.18
2023-01-12T04:34:56.246Z,1019.23
2023-01-12T04:35:56.240Z,1019.22
2023-01-12T04:36:56.239Z,1019.11
2023-01-12T04:37:56.258Z,1019.12
2023-01-12T04:38:56.267Z,1019.09
2023-01-12T04:39:56.260Z,1019.1
2023-01-12T04:40:56.255Z,1019.1
2023-01-12T04:41:56.268Z,1019.02
2023-01-12T04:42:56.260Z,1019.02
2023-01-12T04:43:56.252Z,1018.88
2023-01-12T04:44:56.253Z,1018.86
2023-01-12T04:45:56.330Z,1018.93
2023-01-12T04:46:56.240Z,1018.89
2023-01-12T04:47:56.259Z,1018.91
2023-01-12T04:48:56.253Z,1018.83
2023-01-12T04:49:56.242Z,1018.82
2023-01-12T04:50:56.246Z,1018.85
2023-01-12T04:51:56.245Z,1018.8
2023-01-12T04:52:56.261Z,1018.82
2023-01-12T04:53:56.258Z,1018.82
2023-01-12T04:54:56.854Z,1018.82
2023-01-12T04:55:56.249Z,1018.78
2023-01-12T04:56:56.250Z,1018.72
2023-01-12T04:57:56.275Z,1018.79
2023-01-12T04:58:56.246Z,1018.8
2023-01-12T04:59:56.250Z,1018.78
2023-01-12T05:00:56.347Z,1018.78
2023-01-12T05:01:56.308Z,1018.93
2023-01-12T05:02:56.259Z,1018.87
2023-01-12T05:03:56.399Z,1018.91
2023-01-12T05:04:56.252Z,1018.86
2023-01-12T05:05:56.256Z,1018.82
2023-01-12T05:06:56.238Z,1018.98
2023-01-12T05:07:56.263Z,1018.98
2023-01-12T05:08:56.253Z,1018.84
2023-01-12T05:09:56.242Z,1018.82
2023-01-12T05:10:56.234Z,1018.82
2023-01-12T05:11:56.247Z,1018.76
2023-01-12T05:12:56.267Z,1018.83
2023-01-12T05:13:56.260Z,1018.86
2023-01-12T05:14:56.240Z,1018.89
2023-01-12T05:15:56.247Z,1018.76
2023-01-12T05:16:56.297Z,1018.8
2023-01-12T05:17:56.263Z,1018.85
2023-01-12T05:18:56.244Z,1018.85
2023-01-12T05:19:56.252Z,1018.91
2023-01-12T05:20:56.238Z,1018.91
2023-01-12T05:21:56.249Z,1018.91
2023-01-12T05:22:56.251Z,1018.85
2023-01-12T05:23:56.235Z,1018.91
2023-01-12T05:24:56.240Z,1018.79
2023-01-12T05:25:56.238Z,1018.75
2023-01-12T05:26:56.235Z,1018.73
2023-01-12T05:27:56.263Z,1018.74
2023-01-12T05:28:56.248Z,1018.62
2023-01-12T05:29:56.243Z,1018.79
2023-01-12T05:30:56.267Z,1018.59
2023-01-12T05:31:56.242Z,1018.57
2023-01-12T05:32:56.262Z,1018.58
2023-01-12T05:33:56.237Z,1018.62
2023-01-12T05:34:56.236Z,1018.6
2023-01-12T05:35:56.242Z,1018.72
2023-01-12T05:36:56.255Z,1018.63
2023-01-12T05:37:56.272Z,1018.65
2023-01-12T05:38:56.238Z,1018.63
2023-01-12T05:39:56.246Z,1018.75
2023-01-12T05:40:56.239Z,1018.71
2023-01-12T05:41:56.249Z,1018.72
2023-01-12T05:42:56.251Z,1018.74
2023-01-12T05:43:56.239Z,1018.63
2023-01-12T05:44:56.249Z,1018.78
2023-01-12T05:45:56.280Z,1018.73
2023-01-12T05:46:56.254Z,1018.77
2023-01-12T05:47:56.259Z,1018.64
2023-01-12T05:48:56.253Z,1018.77
2023-01-12T05:49:56.258Z,1018.77
2023-01-12T05:50:56.246Z,1018.69
2023-01-12T05:51:56.254Z,1019.02
2023-01-12T05:52:56.266Z,1018.76
2023-01-12T05:53:56.252Z,1018.68
2023-01-12T05:54:56.245Z,1018.82
2023-01-12T05:55:56.254Z,1018.73
2023-01-12T05:56:56.248Z,1018.7
2023-01-12T05:57:56.271Z,1018.89
2023-01-12T05:58:56.243Z,1018.69
2023-01-12T05:59:56.243Z,1018.8
2023-01-12T06:00:56.260Z,1018.8
2023-01-12T06:01:56.292Z,1018.81
2023-01-12T06:02:56.257Z,1018.73
2023-01-12T06:03:56.262Z,1018.62
2023-01-12T06:04:56.304Z,1018.68
2023-01-12T06:05:56.241Z,1018.68
2023-01-12T06:06:56.253Z,1018.52
2023-01-12T06:07:56.254Z,1018.52
2023-01-12T06:08:56.247Z,1018.54
2023-01-12T06:09:56.247Z,1018.54
2023-01-12T06:10:56.245Z,1018.55
2023-01-12T06:11:56.244Z,1018.61
2023-01-12T06:12:56.268Z,1018.54
2023-01-12T06:13:56.260Z,1018.55
2023-01-12T06:14:56.243Z,1018.61
2023-01-12T06:15:56.269Z,1018.61
2023-01-12T06:16:56.249Z,1018.53
2023-01-12T06:17:56.259Z,1018.53
2023-01-12T06:18:56.240Z,1018.63
2023-01-12T06:19:56.241Z,1018.68
2023-01-12T06:20:56.242Z,1018.6
2023-01-12T06:21:56.239Z,1018.6
2023-01-12T06:22:56.258Z,1018.64
2023-01-12T06:23:56.247Z,1018.69
2023-01-12T06:24:56.252Z,1018.76
2023-01-12T06:25:56.257Z,1018.56
2023-01-12T06:26:56.253Z,1018.57
2023-01-12T06:27:56.274Z,1018.59
2023-01-12T06:28:56.240Z,1018.59
2023-01-12T06:29:56.238Z,1018.6
2023-01-12T06:30:56.259Z,1018.52
2023-01-12T06:31:56.260Z,1018.7
2023-01-12T06:32:56.254Z,1018.61
2023-01-12T06:33:56.241Z,1018.58
2023-01-12T06:34:57.957Z,1018.61
2023-01-12T06:35:56.239Z,1018.73
2023-01-12T06:36:56.240Z,1018.68
2023-01-12T06:37:56.273Z,1018.57
2023-01-12T06:38:56.259Z,1018.69
2023-01-12T06:39:56.236Z,1018.54
2023-01-12T06:40:56.249Z,1018.69
2023-01-12T06:41:56.243Z,1018.53
2023-01-12T06:42:56.257Z,1018.56
2023-01-12T06:43:56.239Z,1018.57
2023-01-12T06:44:56.253Z,1018.61
2023-01-12T06:45:56.248Z,1018.49
2023-01-12T06:46:56.318Z,1018.56
2023-01-12T06:47:56.255Z,1018.48
2023-01-12T06:48:56.243Z,1018.49
2023-01-12T06:49:56.242Z,1018.56
2023-01-12T06:50:56.239Z,1018.6
2023-01-12T06:51:56.237Z,1018.54
2023-01-12T06:52:56.365Z,1018.58
2023-01-12T06:53:56.246Z,1018.63
2023-01-12T06:54:56.240Z,1018.53
2023-01-12T06:55:56.262Z,1018.52
2023-01-12T06:56:56.247Z,1018.63
2023-01-12T06:57:56.261Z,1018.65
2023-01-12T06:58:56.317Z,1018.61
2023-01-12T06:59:56.236Z,1018.59
2023-01-12T07:00:56.277Z,1018.59
2023-01-12T07:01:56.302Z,1018.58
2023-01-12T07:02:56.259Z,1018.47
2023-01-12T07:03:56.251Z,1018.52
2023-01-12T07:04:56.245Z,1018.64
2023-01-12T07:05:56.244Z,1018.4
2023-01-12T07:06:56.247Z,1018.4
2023-01-12T07:07:56.258Z,1018.4
2023-01-12T07:08:56.241Z,1018.4
2023-01-12T07:09:56.246Z,1018.49
2023-01-12T07:10:56.244Z,1018.59
2023-01-12T07:11:56.251Z,1018.49
2023-01-12T07:12:56.261Z,1018.5
2023-01-12T07:13:56.240Z,1018.52
2023-01-12T07:14:56.269Z,1018.43
2023-01-12T07:15:56.323Z,1018.55
2023-01-12T07:16:56.246Z,1018.45
2023-01-12T07:17:56.267Z,1018.51
2023-01-12T07:18:56.246Z,1018.46
2023-01-12T07:19:56.247Z,1018.51
2023-01-12T07:20:56.290Z,1018.58
2023-01-12T07:21:56.252Z,1018.47
2023-01-12T07:22:56.265Z,1018.46
2023-01-12T07:23:56.256Z,1018.52
2023-01-12T07:24:57.792Z,1018.5
2023-01-12T07:25:56.244Z,1018.7
2023-01-12T07:26:56.248Z,1018.64
2023-01-12T07:27:56.283Z,1018.55
2023-01-12T07:28:56.281Z,1018.57
2023-01-12T07:29:56.252Z,1018.61
2023-01-12T07:30:56.354Z,1018.61
2023-01-12T07:31:56.251Z,1018.66
2023-01-12T07:32:56.307Z,1018.55
2023-01-12T07:33:56.262Z,1018.51
2023-01-12T07:34:56.241Z,1018.53
2023-01-12T07:35:56.344Z,1018.49
2023-01-12T07:36:56.261Z,1018.42
2023-01-12T07:37:56.265Z,1018.42
2023-01-12T07:38:56.265Z,1018.55
2023-01-12T07:39:58.985Z,1018.7
2023-01-12T07:40:56.239Z,1018.47
2023-01-12T07:41:56.354Z,1018.57
2023-01-12T07:42:56.255Z,1018.83
2023-01-12T07:43:56.238Z,1018.49
2023-01-12T07:44:56.291Z,1018.36
2023-01-12T07:45:56.243Z,1018.62
2023-01-12T07:46:56.238Z,1018.52
2023-01-12T07:47:56.257Z,1018.62
2023-01-12T07:48:56.242Z,1018.68
2023-01-12T07:49:56.251Z,1018.61
2023-01-12T07:50:56.244Z,1018.45
2023-01-12T07:51:56.242Z,1018.69
2023-01-12T07:52:56.258Z,1018.35
2023-01-12T07:53:56.243Z,1018.37
2023-01-12T07:54:56.236Z,1018.52
2023-01-12T07:55:56.263Z,1018.37
2023-01-12T07:56:56.243Z,1018.43
2023-01-12T07:57:56.255Z,1018.41
2023-01-12T07:58:56.240Z,1018.48
2023-01-12T07:59:56.254Z,1018.57
2023-01-12T08:00:56.287Z,1018.6
2023-01-12T08:01:56.278Z,1018.5
2023-01-12T08:02:56.261Z,1018.42
2023-01-12T08:03:56.244Z,1018.54
2023-01-12T08:04:56.255Z,1018.39
2023-01-12T08:05:56.341Z,1018.47
2023-01-12T08:06:56.243Z,1018.4
2023-01-12T08:07:56.266Z,1018.42
2023-01-12T08:08:56.243Z,1018.42
2023-01-12T08:09:56.258Z,1018.43
2023-01-12T08:10:56.239Z,1018.38
2023-01-12T08:11:56.242Z,1018.35
2023-01-12T08:12:56.265Z,1018.4
2023-01-12T08:13:56.243Z,1018.4
2023-01-12T08:14:56.250Z,1018.42
2023-01-12T08:15:56.295Z,1018.48
2023-01-12T08:16:56.260Z,1018.38
2023-01-12T08:17:56.261Z,1018.49
2023-01-12T08:18:56.284Z,1018.36
2023-01-12T08:19:56.253Z,1018.33
2023-01-12T08:20:56.250Z,1018.36
2023-01-12T08:21:56.259Z,1018.33
2023-01-12T08:22:56.262Z,1018.26
2023-01-12T08:23:56.253Z,1018.37
2023-01-12T08:24:56.296Z,1018.35
2023-01-12T08:25:56.258Z,1018.3
2023-01-12T08:26:56.248Z,1018.29
2023-01-12T08:27:56.298Z,1018.36
2023-01-12T08:28:56.246Z,1018.35
2023-01-12T08:29:56.246Z,1018.45
2023-01-12T08:30:56.255Z,1018.49
2023-01-12T08:31:56.247Z,1018.72
2023-01-12T08:32:56.265Z,1018.42
2023-01-12T08:33:56.247Z,1018.57
2023-01-12T08:34:56.881Z,1018.41
2023-01-12T08:35:56.240Z,1018.38
2023-01-12T08:36:56.253Z,1018.35
2023-01-12T08:37:56.272Z,1018.33
2023-01-12T08:38:56.241Z,1018.36
2023-01-12T08:39:56.257Z,1018.3
2023-01-12T08:40:56.256Z,1018.41
2023-01-12T08:41:56.261Z,1018.31
2023-01-12T08:42:56.263Z,1018.31
2023-01-12T08:43:56.237Z,1018.3
2023-01-12T08:44:56.253Z,1018.22
2023-01-12T08:45:56.243Z,1018.29
2023-01-12T08:46:56.268Z,1018.31
2023-01-12T08:47:56.259Z,1018.33
2023-01-12T08:48:56.234Z,1018.24
2023-01-12T08:49:56.242Z,1018.25
2023-01-12T08:50:56.255Z,1018.25
2023-01-12T08:51:56.236Z,1018.2
2023-01-12T08:52:56.257Z,1018.26
2023-01-12T08:53:56.252Z,1018.26
2023-01-12T08:54:56.253Z,1018.15
2023-01-12T08:55:56.239Z,1018.22
2023-01-12T08:56:56.335Z,1018.15
2023-01-12T08:57:56.270Z,1018.19
2023-01-12T08:58:56.282Z,1018.1
2023-01-12T08:59:56.233Z,1018.07
2023-01-12T09:00:56.523Z,1018.08
2023-01-12T09:01:56.340Z,1018.09
2023-01-12T09:02:56.253Z,1018.1
2023-01-12T09:03:56.238Z,1018.13
2023-01-12T09:04:56.243Z,1018.08
2023-01-12T09:05:56.247Z,1018.05
2023-01-12T09:06:56.248Z,1018.04
2023-01-12T09:07:56.317Z,1018.04
2023-01-12T09:08:56.245Z,1018.04
2023-01-12T09:09:56.245Z,1018
2023-01-12T09:10:56.244Z,1018.04
2023-01-12T09:11:56.239Z,1018.09
2023-01-12T09:12:56.278Z,1018.07
2023-01-12T09:13:56.295Z,1018.01
2023-01-12T09:14:56.240Z,1018.07
2023-01-12T09:16:11.306Z,1018.06
2023-01-12T09:16:56.288Z,1018.05
2023-01-12T09:17:56.287Z,1018.05
2023-01-12T09:18:56.254Z,1018.05
2023-01-12T09:19:56.362Z,1018.03
2023-01-12T09:20:56.249Z,1018.19
2023-01-12T09:21:56.247Z,1017.94
2023-01-12T09:22:56.267Z,1018.06
2023-01-12T09:23:56.256Z,1017.95
2023-01-12T09:24:56.245Z,1018.02
2023-01-12T09:25:56.256Z,1017.82
2023-01-12T09:26:56.252Z,1017.9
2023-01-12T09:27:56.265Z,1017.85
2023-01-12T09:28:56.234Z,1018
2023-01-12T09:29:56.244Z,1017.83
2023-01-12T09:30:56.249Z,1017.83
2023-01-12T09:31:56.314Z,1017.8
2023-01-12T09:32:56.262Z,1017.84
2023-01-12T09:33:56.250Z,1017.95
2023-01-12T09:34:56.257Z,1017.83
2023-01-12T09:35:56.247Z,1017.86
2023-01-12T09:36:56.235Z,1017.78
2023-01-12T09:37:56.258Z,1017.89
2023-01-12T09:38:56.321Z,1017.79
2023-01-12T09:39:56.239Z,1017.79
2023-01-12T09:40:56.243Z,1017.83
2023-01-12T09:41:56.249Z,1017.76
2023-01-12T09:42:56.268Z,1017.82
2023-01-12T09:43:56.251Z,1017.79
2023-01-12T09:44:56.237Z,1017.8
2023-01-12T09:45:56.383Z,1017.78
2023-01-12T09:46:56.260Z,1017.77
2023-01-12T09:47:56.264Z,1017.72
2023-01-12T09:48:56.242Z,1017.84
2023-01-12T09:50:08.038Z,1017.73
2023-01-12T09:50:56.244Z,1017.76
2023-01-12T09:51:56.257Z,1017.77
2023-01-12T09:52:56.260Z,1017.75
2023-01-12T09:53:56.245Z,1017.75
2023-01-12T09:54:56.244Z,1017.59
2023-01-12T09:55:56.236Z,1017.63
2023-01-12T09:56:56.241Z,1017.49
2023-01-12T09:57:56.258Z,1017.62
2023-01-12T09:58:56.251Z,1017.6
2023-01-12T09:59:56.241Z,1017.4
2023-01-12T10:00:56.270Z,1017.47
2023-01-12T10:01:56.390Z,1017.37
2023-01-12T10:02:56.312Z,1017.35
2023-01-12T10:03:56.270Z,1017.75
2023-01-12T10:04:56.237Z,1017.34
2023-01-12T10:05:56.238Z,1017.34
2023-01-12T10:06:56.247Z,1017.33
2023-01-12T10:07:56.253Z,1017.58
2023-01-12T10:08:56.245Z,1017.58
2023-01-12T10:09:56.241Z,1017.2
2023-01-12T10:10:56.241Z,1017.25
2023-01-12T10:11:56.238Z,1017.15
2023-01-12T10:12:58.030Z,1017.15
2023-01-12T10:13:56.238Z,1017.33
2023-01-12T10:14:56.236Z,1017.32
2023-01-12T10:15:56.240Z,1017.16
2023-01-12T10:16:56.252Z,1017.24
2023-01-12T10:17:56.258Z,1017.29
2023-01-12T10:18:56.247Z,1017.37
2023-01-12T10:19:56.239Z,1017.15
2023-01-12T10:20:56.247Z,1017.13
2023-01-12T10:21:56.249Z,1017.26
2023-01-12T10:22:56.261Z,1017.25
2023-01-12T10:23:56.263Z,1017.16
2023-01-12T10:24:56.245Z,1017.31
2023-01-12T10:25:56.250Z,1017.18
2023-01-12T10:26:56.238Z,1017.14
2023-01-12T10:27:56.266Z,1017.11
2023-01-12T10:28:56.260Z,1017.1
2023-01-12T10:29:56.249Z,1017.2
2023-01-12T10:30:56.730Z,1017.25
2023-01-12T10:31:56.299Z,1017.13
2023-01-12T10:32:56.258Z,1017.06
2023-01-12T10:33:56.273Z,1017.06
2023-01-12T10:34:56.251Z,1016.96
2023-01-12T10:35:56.261Z,1017.15
2023-01-12T10:36:56.251Z,1017.03
2023-01-12T10:37:56.276Z,1017.08
2023-01-12T10:38:56.242Z,1017.03
2023-01-12T10:39:56.351Z,1017.02
2023-01-12T10:40:56.241Z,1016.93
2023-01-12T10:41:56.244Z,1016.99
2023-01-12T10:42:56.255Z,1017.01
2023-01-12T10:43:56.244Z,1016.97
2023-01-12T10:44:56.248Z,1016.88
2023-01-12T10:45:56.290Z,1017.1
2023-01-12T10:46:56.251Z,1016.84
2023-01-12T10:47:56.266Z,1016.92
2023-01-12T10:48:56.549Z,1016.84
2023-01-12T10:49:56.254Z,1016.95
2023-01-12T10:50:56.252Z,1016.89
2023-01-12T10:51:56.313Z,1016.83
2023-01-12T10:52:56.263Z,1016.93
2023-01-12T10:53:56.255Z,1016.94
2023-01-12T10:54:58.807Z,1017.13
2023-01-12T10:55:56.240Z,1016.89
2023-01-12T10:56:56.243Z,1016.8
2023-01-12T10:57:56.268Z,1017.02
2023-01-12T10:58:56.267Z,1016.93
2023-01-12T10:59:56.250Z,1016.9
2023-01-12T11:00:56.446Z,1016.91
2023-01-12T11:01:56.485Z,1016.8
2023-01-12T11:02:56.290Z,1016.9
2023-01-12T11:03:56.239Z,1017.01
2023-01-12T11:04:56.254Z,1016.98
2023-01-12T11:05:56.242Z,1016.97
2023-01-12T11:06:56.256Z,1016.91
2023-01-12T11:07:56.263Z,1016.92
2023-01-12T11:08:56.236Z,1016.92
2023-01-12T11:09:56.242Z,1016.79
2023-01-12T11:10:56.245Z,1017
2023-01-12T11:11:56.239Z,1016.94
2023-01-12T11:12:56.271Z,1016.8
2023-01-12T11:13:56.243Z,1016.88
2023-01-12T11:14:56.244Z,1016.87
2023-01-12T11:15:56.235Z,1016.82
2023-01-12T11:16:56.339Z,1016.95
2023-01-12T11:17:56.266Z,1016.82
2023-01-12T11:18:56.242Z,1016.78
2023-01-12T11:19:56.287Z,1016.77
2023-01-12T11:20:56.246Z,1016.75
2023-01-12T11:21:56.263Z,1016.76
2023-01-12T11:22:56.261Z,1016.72
2023-01-12T11:23:56.240Z,1016.78
2023-01-12T11:24:56.242Z,1016.55
2023-01-12T11:25:56.242Z,1016.98
2023-01-12T11:26:56.239Z,1016.67
2023-01-12T11:27:56.259Z,1016.63
2023-01-12T11:28:56.267Z,1016.55
2023-01-12T11:29:56.250Z,1016.49
2023-01-12T11:30:56.293Z,1016.43
2023-01-12T11:31:56.240Z,1016.43
2023-01-12T11:32:56.257Z,1016.5
2023-01-12T11:33:56.254Z,1016.44
2023-01-12T11:34:56.240Z,1016.43
2023-01-12T11:35:56.243Z,1016.44
2023-01-12T11:36:56.248Z,1016.39
2023-01-12T11:37:56.264Z,1016.43
2023-01-12T11:38:56.245Z,1016.37
2023-01-12T11:39:56.244Z,1016.4
2023-01-12T11:40:56.262Z,1016.55
2023-01-12T11:41:56.246Z,1016.48
2023-01-12T11:42:56.259Z,1016.33
2023-01-12T11:43:56.265Z,1016.29
2023-01-12T11:44:56.245Z,1016.43
2023-01-12T11:45:56.294Z,1016.33
2023-01-12T11:46:56.254Z,1016.36
2023-01-12T11:47:56.265Z,1016.27
2023-01-12T11:48:56.238Z,1016.19
2023-01-12T11:49:56.256Z,1016.18
2023-01-12T11:50:56.252Z,1016.13
2023-01-12T11:51:56.245Z,1016.22
2023-01-12T11:52:56.275Z,1016.04
2023-01-12T11:53:56.253Z,1016.07
2023-01-12T11:54:56.252Z,1016.05
2023-01-12T11:55:56.292Z,1016.08
2023-01-12T11:56:56.249Z,1016.12
2023-01-12T11:57:56.264Z,1016.15
2023-01-12T11:58:56.252Z,1016.26
2023-01-12T11:59:56.375Z,1016.18
2023-01-12T12:00:56.296Z,1015.99
2023-01-12T12:01:56.248Z,1016.04
2023-01-12T12:02:56.288Z,1016.1
2023-01-12T12:03:56.340Z,1015.96
2023-01-12T12:04:56.270Z,1016.37
2023-01-12T12:05:56.349Z,1016.07
2023-01-12T12:06:56.311Z,1016.04
2023-01-12T12:07:56.265Z,1016.19
2023-01-12T12:08:56.281Z,1016.19